MCOORLANDO INTL
METARs for airports near MCO, sorted by distance:
N 0 nm 96' KMCO 221753Z 34008G17KT 10SM BKN033 22/14 A3003
N 7 nm 112' KORL 221800Z 35008KT 10SM BKN033 BKN040 22/13 A3003
SW 10 nm 82' KISM 221756Z 35009G14KT 10SM OVC026 22/13 A3005
N 21 nm 54' KSFB 221753Z 01005KT 10SM BKN033 BKN039 22/14 A3003
E 27 nm 33' KTIX 221747Z 02015KT 7SM BKN025 23/15 A3003
SW 32 nm 145' KGIF 221753Z 33010KT 10SM SCT034 23/13 A3005
E 34 nm 8' KTTS 221755Z 36015KT 10SM FEW025 BKN043 BKN100 BKN140 BKN180 BKN210 22/16 A3000
NW 35 nm 76' KLEE 221753Z 33008KT 300V020 10SM BKN036 22/13 A3005
N 38 nm 79' KDED 221755Z 31009KT 10SM BKN042 21/13 A3004
SW 38 nm 124' KBOW 221750Z 34009KT 10SM FEW035 23/13 A3004
E 38 nm 7' KCOF 221810Z 01010KT 10SM FEW028 SCT034 SCT190 22/16 A2999
E 39 nm 9' KXMR 221810Z 02014KT 10SM SCT022 BKN030 22/15 A2999
SE 40 nm 33' KMLB 221753Z 34010KT 10SM OVC026 22/15 A3001
NE 42 nm 10' KEVB 221747Z 36014G20KT 10SM BKN020 OVC030 21/16 A3003
SW 45 nm 141' KLAL 221745Z 36006G15KT 10SM SCT039 23/12 A3004
W 46 nm 89' KZPH 221815Z 31005KT 10SM SCT044 24/12 A3005
N 46 nm 34' KDAB 221753Z 36011G20KT 10SM SCT029 BKN039 BKN049 21/14 A3004
SW 52 nm 152' KPCM 221815Z 03009G15KT 10SM CLR 26/13 A3004
N 53 nm 27' KOMN 221750Z 02012G20KT 7SM SCT029 OVC032 20/15 A3004
NW 57 nm 64' KINF 221815Z 01010G15KT CLR 23/11 A3005
S 58 nm 61' KSEF 221755Z 32007KT 10SM SCT018 SCT032 24/18 A3002
SW 60 nm 21' KVDF 221815Z 33009KT 10SM CLR 24/14 A3004
W 60 nm 76' KBKV 221753Z 34009G21KT 10SM CLR 24/12 A3004
N 62 nm 33' KFIN 221750Z 01010G17KT 10SM SCT028 BKN044 OVC050 21/13 A3005
NW 65 nm 89' KOCF 221751Z 34013G16KT 10SM CLR 23/10 A3006
SE 66 nm 23' KVRB 221753Z 34009KT 10SM OVC010 21/17 A3001
SW 67 nm 7' KTPF 221815Z 03009KT 10SM CLR 26/10 A3003
SW 70 nm 26' KTPA 221753Z 30010G18KT 10SM FEW035 25/12 A3004
W 71 nm 8' KCGC 221815Z 30005KT 10SM SCT055 23/10 A3004
SW 73 nm 14' KMCF 221755Z 34009G16KT 10SM CLR 25/12 A3002
S 73 nm 33' KOBE 221755Z 36011G16KT 5SM HZ FEW020 SCT027 BKN041 25/19 A2999
SE 74 nm 23' KFPR 221753Z 35006KT 10SM OVC013 23/18 A3000
SW 79 nm 10' KPIE 221753Z 34013G19KT CLR 24/13 A3004
SW 80 nm 6' KSPG 221753Z 34013G19KT 10SM CLR 24/13 A3001
W 81 nm 71' KCLW 221735Z 32014G19KT 10SM CLR 22/11 A3006
SW 90 nm 29' KSRQ 221753Z 01012G17KT 9SM FEW038 25/15 A3002
NW 91 nm 151' KGNV 221753Z 01011KT 10SM BKN055 21/09 A3008
N 91 nm 9' KSGJ 221756Z 02015G37KT 10SM FEW024 20/13 A3008
SE 94 nm 16' KSUA 221747Z 36008G20KT 7SM VCSH BKN010 23/ A3000
S 97 nm 25' KPGD 221753Z 36007KT 10SM FEW022 BKN027 OVC044 26/19 A3002
TAFs for airports near MCO, sorted by distance:
N 0 nm 96' KMCO KMCO 221739Z 2218/2324 34010G18KT P6SM SCT025 BKN035
  FM222200 02017G25KT P6SM SCT050
  FM230300 01007KT P6SM FEW050
  FM231400 06011KT P6SM FEW050 SCT300
SW 10 nm 82' KISM KISM 221739Z 2218/2318 34010G18KT P6SM SCT025 BKN035
  FM222200 02017G25KT P6SM SCT050
  FM230300 01007KT P6SM FEW050
  FM231400 06011KT P6SM FEW050 SCT300
N 21 nm 54' KSFB KSFB 221739Z 2218/2318 35011G21KT P6SM SCT025 BKN035
  FM222100 02015G24KT P6SM SCT040
  FM230200 01008KT P6SM FEW050
  FM231400 06011G18KT P6SM FEW050 SCT300
E 27 nm 33' KTIX TAF KTIX 221739Z 2218/2318 35012G20KT P6SM BKN025
  FM222100 01020G28KT P6SM SCT025 BKN035
  FM230300 02013G20KT P6SM SCT040
  FM231400 06012G18KT P6SM FEW050 SCT300
NW 35 nm 76' KLEE KLEE 221739Z 2218/2318 35009G15KT P6SM SCT030 SCT050
  FM222300 03014G22KT P6SM FEW050
  FM230300 02008KT P6SM FEW040
  FM231400 07009KT P6SM FEW050 SCT300
E 38 nm 7' KCOF TAF KCOF 221800Z 2218/2324 35010G15KT 9999 OVC020 QNH2998INS
  BECMG 2305/2306 02010KT 9999 SCT025 QNH3006INS
  BECMG 2314/2315 05008KT 9999 FEW040 QNH3013INS TX25/2318Z TN18/2305Z
SE 40 nm 33' KMLB KMLB 221739Z 2218/2318 33010G17KT P6SM BKN025
  FM222100 01020G28KT P6SM SCT025 BKN035
  FM230400 02012G20KT P6SM SCT035
  FM231400 06012G18KT P6SM SCT045 SCT300
SW 45 nm 141' KLAL TAF KLAL 221730Z 2218/2318 35010G18KT P6SM SCT025 SCT250
  FM230000 04012KT P6SM SKC
  FM230600 03005KT P6SM SKC
  FM231400 08010KT P6SM SKC
N 46 nm 34' KDAB TAF KDAB 221739Z 2218/2318 02014G22KT P6SM FEW020 BKN025 BKN035
  FM222000 02020G28KT P6SM SCT050
  FM230300 02013G20KT P6SM SCT040
  FM231400 06011G18KT P6SM FEW050 SCT300
SE 66 nm 23' KVRB KVRB 221739Z 2218/2318 35012G18KT P6SM OVC015
  FM222100 02018G25KT P6SM SCT020 BKN035
  FM230300 02013G20KT P6SM SCT040
  FM231400 06012G20KT P6SM SCT045 SCT300
SW 70 nm 26' KTPA KTPA 221730Z 2218/2324 34013G21KT P6SM FEW025 FEW250
  FM230000 36010KT P6SM SKC
  FM230300 03009KT P6SM SKC
  FM231500 08008KT P6SM SKC
  FM232100 29006KT P6SM SKC
SW 73 nm 14' KMCF TAF KMCF 221700Z 2217/2323 34012KT 9999 BKN012 BKN020 OVC070 QNH2991INS
  BECMG 2218/2219 01012KT 9999 FEW012 SCT020 SCT080 QNH3000INS
  BECMG 2301/2302 04012KT 9999 FEW080 QNH3009INS
  BECMG 2306/2307 05009KT 9999 SKC QNH3011INS TX25/2219Z TN15/2309Z
SE 74 nm 23' KFPR TAF KFPR 221739Z 2218/2318 01007KT P6SM OVC015
  FM222100 02012G20KT P6SM SCT020 BKN035
  FM230300 03008KT P6SM SCT040
  FM231400 06010G18KT P6SM SCT045 SCT300
SW 79 nm 10' KPIE KPIE 221730Z 2218/2318 33013G21KT P6SM FEW250
  FM230300 05013G22KT P6SM SKC
  FM230900 07010KT P6SM SKC
SW 90 nm 29' KSRQ KSRQ 221730Z 2218/2318 34012G20KT P6SM SCT025 SCT050
  FM222000 33014G24KT P6SM FEW025 FEW250
  FM230000 36010KT P6SM FEW250
  FM230400 05009KT P6SM SKC
  FM231400 08011KT P6SM SKC
NW 91 nm 151' KGNV KGNV 221742Z 2218/2318 35010G18KT P6SM BKN045
  FM230000 01003KT P6SM FEW040
  FM231500 06008KT P6SM SCT040
N 91 nm 9' KSGJ TAF KSGJ 221742Z 2218/2318 02012G20KT P6SM SCT025 SCT050
  FM222000 02012G22KT P6SM SCT045
  FM230000 03010KT P6SM FEW035 SCT040
  FM231400 05011KT P6SM SCT040
SE 94 nm 16' KSUA TAF KSUA 221739Z 2218/2318 03013KT P6SM VCSH SCT010 BKN018
  FM222100 36014G23KT P6SM BKN050
  FM230300 03012G20KT P6SM SCT040
  FM231400 06012G20KT P6SM SCT045 SCT300
  AMD NOT SKED
S 97 nm 25' KPGD TAF KPGD 221730Z 2218/2318 32012G18KT P6SM SCT015 BKN050
  FM230000 35012KT P6SM SKC
  FM230400 03010KT P6SM SKC
  FM231400 07010KT P6SM SKC

Shortcut to this page: http://wxbay.com.

Data may contain errors.